M/V Muzaffer Ana — TCWY4 — position and weather

sailwx.info

Track history (hours):
 
Tides and Currents Weather Stations Pressure Air Temp Water Temp Dewpoint Dewpoint Depression Visibility Wind Speed Wind Dir Waves Ship Positions

M/V Muzaffer Ana

Last reported at 2018-Jun-17 12:26 UTC. Time now 2018-Jun-18 03:31 UTC.
Position N 49°14' W 004°27'.

Length 148 m; draft 8.1 m.

Type: Cargo ship. MMSI: 271040130.

Date/timePositionNaut miles runAvg speedWind from/ knotsBaromVisibWave heightAir tempDewpointWater temp
2018-Jun-17 12:26N 49°14' W 004°27'511.0
2018-Jun-17 11:59N 49°12' W 004°33'3911.7
2018-Jun-17 08:37N 48°50' W 005°24'212.7
2018-Jun-17 08:30N 48°50' W 005°26'2012.8
2018-Jun-17 06:57N 48°34' W 005°45'813.4
2018-Jun-17 06:20N 48°27' W 005°52'57311.1
2018-Jun-15 02:35N 39°21' W 009°52'511.6
2018-Jun-15 02:12N 39°16' W 009°51'211.6
2018-Jun-15 02:01N 39°14' W 009°51'611.7
2018-Jun-15 01:30N 39°08' W 009°51'611.4
2018-Jun-15 01:00N 39°02' W 009°51'611.5
2018-Jun-15 00:30N 38°57' W 009°51'611.6
2018-Jun-15 00:01N 38°51' W 009°53'611.6
2018-Jun-14 23:30N 38°45' W 009°53'511.0
2018-Jun-14 23:01N 38°40' W 009°52'611.2
2018-Jun-14 22:31N 38°34' W 009°50'510.6
2018-Jun-14 22:01N 38°29' W 009°48'510.5
2018-Jun-14 21:30N 38°24' W 009°45'510.7
2018-Jun-14 21:01N 38°19' W 009°44'510.5
2018-Jun-14 20:30N 38°14' W 009°43'510.6
2018-Jun-14 20:01N 38°09' W 009°43'510.8
2018-Jun-14 19:30N 38°03' W 009°42'510.5
2018-Jun-14 19:01N 37°58' W 009°40'510.4
2018-Jun-14 18:30N 37°53' W 009°39'510.1
2018-Jun-14 18:00N 37°48' W 009°37'510.2
2018-Jun-14 17:30N 37°43' W 009°35'510.4
2018-Jun-14 17:00N 37°38' W 009°34'510.2
2018-Jun-14 16:31N 37°33' W 009°32'510.1
2018-Jun-14 16:00N 37°28' W 009°31'610.5
2018-Jun-14 15:28N 37°23' W 009°29'610.2
2018-Jun-14 14:50N 37°17' W 009°27'310.0
2018-Jun-14 14:30N 37°13' W 009°26'510.2
2018-Jun-14 14:00N 37°08' W 009°25'510.0
2018-Jun-14 13:30N 37°03' W 009°24'4910.1
2018-Jun-14 08:40N 36°35' W 008°35'1311.6
2018-Jun-14 07:32N 36°31' W 008°19'0 9.5
2018-Jun-14 07:31N 36°31' W 008°19'711.6
2018-Jun-14 06:55N 36°29' W 008°11'511.6
2018-Jun-14 06:31N 36°27' W 008°05'612.0
2018-Jun-14 06:00N 36°25' W 007°58'612.2
2018-Jun-14 05:30N 36°23' W 007°51'612.2
2018-Jun-14 05:00N 36°21' W 007°44'812.3
2018-Jun-14 04:22N 36°18' W 007°35'9712.3
2018-Jun-13 20:27N 35°58' W 005°37'5 9.8
2018-Jun-13 19:59N 35°59' W 005°32'4 8.5
2018-Jun-13 19:30N 35°60' W 005°27'4 7.2
2018-Jun-13 19:00N 36°00' W 005°22'4 7.1
2018-Jun-13 18:30N 36°01' W 005°18'4 7.5
2018-Jun-13 18:00N 36°02' W 005°14'21710.3
2018-Jun-12 20:55N 36°27' W 000°47'511.8
2018-Jun-12 20:30N 36°28' W 000°40'1211.7
2018-Jun-12 19:30N 36°31' W 000°26'2511.2
2018-Jun-12 17:14N 36°36' E 000°05'311.6
2018-Jun-12 17:00N 36°36' E 000°08'611.5
2018-Jun-12 16:27N 36°37' E 000°16'511.5
2018-Jun-12 16:00N 36°38' E 000°22'611.5
2018-Jun-12 15:28N 36°39' E 000°30'3110.8
2018-Jun-12 12:33N 36°44' E 001°09'110.1
2018-Jun-12 12:28N 36°44' E 001°10'510.2
2018-Jun-12 12:00N 36°45' E 001°15'11311.1
2018-Jun-12 01:49N 37°02' E 003°36'411.6
2018-Jun-12 01:28N 37°02' E 003°41'611.3
2018-Jun-12 00:55N 37°03' E 003°49'511.3
2018-Jun-12 00:30N 37°03' E 003°55'611.2
2018-Jun-11 23:59N 37°04' E 004°02'611.5
2018-Jun-11 23:30N 37°04' E 004°09'45911.5
2018-Jun-10 07:29N 37°04' E 013°44'511.4
2018-Jun-10 07:00N 37°02' E 013°51'611.5
2018-Jun-10 06:30N 36°59' E 013°57'611.9
2018-Jun-10 06:00N 36°56' E 014°03'612.0
2018-Jun-10 05:30N 36°52' E 014°09'611.9
2018-Jun-10 05:00N 36°49' E 014°15'612.2
2018-Jun-10 04:30N 36°46' E 014°22'611.9
2018-Jun-10 04:00N 36°43' E 014°29'611.6
2018-Jun-10 03:30N 36°42' E 014°35'611.4
2018-Jun-10 03:00N 36°40' E 014°42'611.3
2018-Jun-10 02:28N 36°38' E 014°49'511.6
2018-Jun-10 02:00N 36°37' E 014°56'712.1
2018-Jun-10 01:27N 36°35' E 015°04'40111.8
2018-Jun-08 15:33N 36°40' E 023°24'112.3
2018-Jun-08 15:27N 36°41' E 023°25'612.4
2018-Jun-08 14:58N 36°46' E 023°28'612.5
2018-Jun-08 14:30N 36°51' E 023°32'612.5
2018-Jun-08 14:00N 36°57' E 023°36'612.5
2018-Jun-08 13:30N 37°02' E 023°40'612.6
2018-Jun-08 13:00N 37°07' E 023°44'4512.5
2018-Jun-08 09:27N 37°43' E 024°17'  
Track history (hours):
 
Tides and Currents Weather Stations Pressure Air Temp Water Temp Dewpoint Dewpoint Depression Visibility Wind Speed Wind Dir Waves Ship Positions

M/V Muzaffer Ana

Last reported at 2018-Jun-17 12:26 UTC. Time now 2018-Jun-18 03:31 UTC.
Position N 49°14' W 004°27'.

Length 148 m; draft 8.1 m.

Type: Cargo ship. MMSI: 271040130.

Date/timePositionNaut miles runAvg speedWind from/ knotsBaromVisibWave heightAir tempDewpointWater temp
2018-Jun-17 12:26N 49°14' W 004°27'511.0
2018-Jun-17 11:59N 49°12' W 004°33'3911.7
2018-Jun-17 08:37N 48°50' W 005°24'212.7
2018-Jun-17 08:30N 48°50' W 005°26'2012.8
2018-Jun-17 06:57N 48°34' W 005°45'813.4
2018-Jun-17 06:20N 48°27' W 005°52'57311.1
2018-Jun-15 02:35N 39°21' W 009°52'511.6
2018-Jun-15 02:12N 39°16' W 009°51'211.6
2018-Jun-15 02:01N 39°14' W 009°51'611.7
2018-Jun-15 01:30N 39°08' W 009°51'611.4
2018-Jun-15 01:00N 39°02' W 009°51'611.5
2018-Jun-15 00:30N 38°57' W 009°51'611.6
2018-Jun-15 00:01N 38°51' W 009°53'611.6
2018-Jun-14 23:30N 38°45' W 009°53'511.0
2018-Jun-14 23:01N 38°40' W 009°52'611.2
2018-Jun-14 22:31N 38°34' W 009°50'510.6
2018-Jun-14 22:01N 38°29' W 009°48'510.5
2018-Jun-14 21:30N 38°24' W 009°45'510.7
2018-Jun-14 21:01N 38°19' W 009°44'510.5
2018-Jun-14 20:30N 38°14' W 009°43'510.6
2018-Jun-14 20:01N 38°09' W 009°43'510.8
2018-Jun-14 19:30N 38°03' W 009°42'510.5
2018-Jun-14 19:01N 37°58' W 009°40'510.4
2018-Jun-14 18:30N 37°53' W 009°39'510.1
2018-Jun-14 18:00N 37°48' W 009°37'510.2
2018-Jun-14 17:30N 37°43' W 009°35'510.4
2018-Jun-14 17:00N 37°38' W 009°34'510.2
2018-Jun-14 16:31N 37°33' W 009°32'510.1
2018-Jun-14 16:00N 37°28' W 009°31'610.5
2018-Jun-14 15:28N 37°23' W 009°29'610.2
2018-Jun-14 14:50N 37°17' W 009°27'310.0
2018-Jun-14 14:30N 37°13' W 009°26'510.2
2018-Jun-14 14:00N 37°08' W 009°25'510.0
2018-Jun-14 13:30N 37°03' W 009°24'4910.1
2018-Jun-14 08:40N 36°35' W 008°35'1311.6
2018-Jun-14 07:32N 36°31' W 008°19'0 9.5
2018-Jun-14 07:31N 36°31' W 008°19'711.6
2018-Jun-14 06:55N 36°29' W 008°11'511.6
2018-Jun-14 06:31N 36°27' W 008°05'612.0
2018-Jun-14 06:00N 36°25' W 007°58'612.2
2018-Jun-14 05:30N 36°23' W 007°51'612.2
2018-Jun-14 05:00N 36°21' W 007°44'812.3
2018-Jun-14 04:22N 36°18' W 007°35'9712.3
2018-Jun-13 20:27N 35°58' W 005°37'5 9.8
2018-Jun-13 19:59N 35°59' W 005°32'4 8.5
2018-Jun-13 19:30N 35°60' W 005°27'4 7.2
2018-Jun-13 19:00N 36°00' W 005°22'4 7.1
2018-Jun-13 18:30N 36°01' W 005°18'4 7.5
2018-Jun-13 18:00N 36°02' W 005°14'21710.3
2018-Jun-12 20:55N 36°27' W 000°47'511.8
2018-Jun-12 20:30N 36°28' W 000°40'1211.7
2018-Jun-12 19:30N 36°31' W 000°26'2511.2
2018-Jun-12 17:14N 36°36' E 000°05'311.6
2018-Jun-12 17:00N 36°36' E 000°08'611.5
2018-Jun-12 16:27N 36°37' E 000°16'511.5
2018-Jun-12 16:00N 36°38' E 000°22'611.5
2018-Jun-12 15:28N 36°39' E 000°30'3110.8
2018-Jun-12 12:33N 36°44' E 001°09'110.1
2018-Jun-12 12:28N 36°44' E 001°10'510.2
2018-Jun-12 12:00N 36°45' E 001°15'11311.1
2018-Jun-12 01:49N 37°02' E 003°36'411.6
2018-Jun-12 01:28N 37°02' E 003°41'611.3
2018-Jun-12 00:55N 37°03' E 003°49'511.3
2018-Jun-12 00:30N 37°03' E 003°55'611.2
2018-Jun-11 23:59N 37°04' E 004°02'611.5
2018-Jun-11 23:30N 37°04' E 004°09'45911.5
2018-Jun-10 07:29N 37°04' E 013°44'511.4
2018-Jun-10 07:00N 37°02' E 013°51'611.5
2018-Jun-10 06:30N 36°59' E 013°57'611.9
2018-Jun-10 06:00N 36°56' E 014°03'612.0
2018-Jun-10 05:30N 36°52' E 014°09'611.9
2018-Jun-10 05:00N 36°49' E 014°15'612.2
2018-Jun-10 04:30N 36°46' E 014°22'611.9
2018-Jun-10 04:00N 36°43' E 014°29'611.6
2018-Jun-10 03:30N 36°42' E 014°35'611.4
2018-Jun-10 03:00N 36°40' E 014°42'611.3
2018-Jun-10 02:28N 36°38' E 014°49'511.6
2018-Jun-10 02:00N 36°37' E 014°56'712.1
2018-Jun-10 01:27N 36°35' E 015°04'40111.8
2018-Jun-08 15:33N 36°40' E 023°24'112.3
2018-Jun-08 15:27N 36°41' E 023°25'612.4
2018-Jun-08 14:58N 36°46' E 023°28'612.5
2018-Jun-08 14:30N 36°51' E 023°32'612.5
2018-Jun-08 14:00N 36°57' E 023°36'612.5
2018-Jun-08 13:30N 37°02' E 023°40'612.6
2018-Jun-08 13:00N 37°07' E 023°44'4512.5
2018-Jun-08 09:27N 37°43' E 024°17'  

Dump ship's entire track history